createdAt,value
2019-02-26T00:00:51.951Z,45.10
2019-02-26T00:01:50.721Z,45.13
2019-02-26T00:02:52.621Z,44.93
2019-02-26T00:03:50.250Z,44.91
2019-02-26T00:04:53.513Z,44.93
2019-02-26T00:05:52.213Z,45.23
2019-02-26T00:06:51.488Z,45.01
2019-02-26T00:07:51.588Z,45.33
2019-02-26T00:08:53.298Z,45.41
2019-02-26T00:09:51.353Z,45.33
2019-02-26T00:10:50.410Z,45.03
2019-02-26T00:11:50.188Z,45.31
2019-02-26T00:12:50.166Z,45.43
2019-02-26T00:13:51.957Z,45.43
2019-02-26T00:14:52.480Z,45.33
2019-02-26T00:15:50.381Z,45.13
2019-02-26T00:16:51.025Z,45.53
2019-02-26T00:17:50.877Z,45.23
2019-02-26T00:18:50.101Z,45.43
2019-02-26T00:19:50.092Z,45.53
2019-02-26T00:20:50.083Z,45.43
2019-02-26T00:21:51.883Z,45.63
2019-02-26T00:22:50.078Z,45.43
2019-02-26T00:23:51.420Z,45.53
2019-02-26T00:24:50.043Z,45.53
2019-02-26T00:25:50.020Z,45.73
2019-02-26T00:26:50.402Z,45.43
2019-02-26T00:27:51.903Z,45.63
2019-02-26T00:28:50.000Z,45.73
2019-02-26T00:29:51.338Z,45.53
2019-02-26T00:30:49.953Z,45.43
2019-02-26T00:31:50.771Z,45.86
2019-02-26T00:32:50.384Z,45.83
2019-02-26T00:33:49.927Z,45.43
2019-02-26T00:34:49.967Z,45.83
2019-02-26T00:35:50.245Z,45.63
2019-02-26T00:36:49.888Z,45.43
2019-02-26T00:37:51.114Z,45.53
2019-02-26T00:38:49.876Z,45.73
2019-02-26T00:39:51.692Z,45.43
2019-02-26T00:40:49.887Z,45.63
2019-02-26T00:41:53.211Z,45.45
2019-02-26T00:42:52.202Z,45.43
2019-02-26T00:43:53.168Z,45.53
2019-02-26T00:44:53.345Z,45.53
2019-02-26T00:45:51.051Z,45.75
2019-02-26T00:46:53.449Z,45.65
2019-02-26T00:47:49.919Z,45.83
2019-02-26T00:48:49.785Z,45.65
2019-02-26T00:49:51.014Z,45.15
2019-02-26T00:50:49.770Z,45.43
2019-02-26T00:51:52.394Z,45.86
2019-02-26T00:52:49.908Z,45.35
2019-02-26T00:53:52.776Z,45.55
2019-02-26T00:54:50.917Z,45.15
2019-02-26T00:55:51.617Z,45.95
2019-02-26T00:56:49.692Z,46.06
2019-02-26T00:57:49.662Z,46.06
2019-02-26T00:58:50.390Z,46.03
2019-02-26T00:59:49.642Z,45.83
2019-02-26T01:00:49.632Z,46.06
2019-02-26T01:01:50.394Z,45.45
2019-02-26T01:02:49.652Z,45.45
2019-02-26T01:03:51.785Z,45.55
2019-02-26T01:04:50.968Z,45.35
2019-02-26T01:05:49.581Z,45.95
2019-02-26T01:06:49.572Z,45.35
2019-02-26T01:07:52.099Z,46.06
2019-02-26T01:08:49.573Z,45.86
2019-02-26T01:09:50.211Z,45.86
2019-02-26T01:10:49.532Z,45.95
2019-02-26T01:11:50.176Z,45.95
2019-02-26T01:12:50.381Z,45.55
2019-02-26T01:13:50.848Z,45.86
2019-02-26T01:14:50.350Z,45.86
2019-02-26T01:15:50.425Z,45.55
2019-02-26T01:16:49.478Z,45.78
2019-02-26T01:17:49.902Z,45.86
2019-02-26T01:18:51.104Z,45.57
2019-02-26T01:19:49.422Z,45.55
2019-02-26T01:20:50.668Z,45.55
2019-02-26T01:21:49.431Z,45.75
2019-02-26T01:22:49.420Z,45.86
2019-02-26T01:23:49.385Z,45.55
2019-02-26T01:24:49.865Z,45.75
2019-02-26T01:25:49.377Z,45.75
2019-02-26T01:26:49.368Z,45.86
2019-02-26T01:27:51.065Z,45.67
2019-02-26T01:28:51.142Z,45.65
2019-02-26T01:29:51.246Z,46.06
2019-02-26T01:30:53.683Z,45.87
2019-02-26T01:31:50.287Z,45.57
2019-02-26T01:32:49.296Z,46.28
2019-02-26T01:33:50.891Z,46.08
2019-02-26T01:34:49.533Z,45.87
2019-02-26T01:35:50.304Z,45.37
2019-02-26T01:36:49.652Z,45.47
2019-02-26T01:37:51.050Z,45.47
2019-02-26T01:38:50.883Z,45.57
2019-02-26T01:39:50.200Z,45.47
2019-02-26T01:40:51.873Z,45.37
2019-02-26T01:41:51.169Z,45.57
2019-02-26T01:42:52.133Z,45.47
2019-02-26T01:43:50.163Z,45.57
2019-02-26T01:44:49.160Z,45.47
2019-02-26T01:45:50.840Z,45.47
2019-02-26T01:46:49.151Z,45.57
2019-02-26T01:47:50.907Z,45.67
2019-02-26T01:48:49.118Z,45.57
2019-02-26T01:49:51.032Z,45.78
2019-02-26T01:50:49.396Z,45.57
2019-02-26T01:51:49.721Z,45.87
2019-02-26T01:52:50.013Z,46.08
2019-02-26T01:53:51.162Z,45.57
2019-02-26T01:54:49.048Z,46.18
2019-02-26T01:55:50.563Z,45.47
2019-02-26T01:56:50.872Z,45.57
2019-02-26T01:57:49.025Z,45.37
2019-02-26T01:58:56.414Z,45.37
2019-02-26T01:59:50.656Z,45.47
2019-02-26T02:00:48.973Z,45.47
2019-02-26T02:01:51.374Z,45.47
2019-02-26T02:02:48.960Z,46.38
2019-02-26T02:03:50.895Z,46.48
2019-02-26T02:04:49.441Z,46.38
2019-02-26T02:05:50.275Z,46.28
2019-02-26T02:06:48.908Z,46.38
2019-02-26T02:07:51.170Z,46.38
2019-02-26T02:08:50.663Z,46.38
2019-02-26T02:09:50.910Z,46.38
2019-02-26T02:10:49.627Z,46.18
2019-02-26T02:11:48.850Z,46.08
2019-02-26T02:12:48.848Z,46.30
2019-02-26T02:13:48.836Z,46.28
2019-02-26T02:14:48.833Z,46.08
2019-02-26T02:15:48.848Z,46.28
2019-02-26T02:16:48.804Z,46.08
2019-02-26T02:17:48.795Z,46.40
2019-02-26T02:18:50.726Z,46.30
2019-02-26T02:19:48.778Z,46.50
2019-02-26T02:20:48.915Z,46.58
2019-02-26T02:21:49.393Z,46.58
2019-02-26T02:22:49.385Z,46.20
2019-02-26T02:23:50.709Z,46.48
2019-02-26T02:24:50.841Z,46.18
2019-02-26T02:25:48.914Z,46.18
2019-02-26T02:26:50.490Z,46.10
2019-02-26T02:27:51.817Z,46.40
2019-02-26T02:28:49.680Z,46.30
2019-02-26T02:29:50.636Z,45.90
2019-02-26T02:30:48.923Z,46.00
2019-02-26T02:31:48.635Z,46.60
2019-02-26T02:32:53.685Z,46.30
2019-02-26T02:33:49.619Z,46.50
2019-02-26T02:34:48.612Z,46.40
2019-02-26T02:35:48.597Z,46.60
2019-02-26T02:36:48.587Z,46.60
2019-02-26T02:37:50.769Z,46.40
2019-02-26T02:38:48.556Z,46.50
2019-02-26T02:39:48.554Z,46.80
2019-02-26T02:40:51.191Z,47.00
2019-02-26T02:41:51.664Z,47.00
2019-02-26T02:42:49.922Z,46.50
2019-02-26T02:43:48.503Z,46.80
2019-02-26T02:44:49.553Z,46.60
2019-02-26T02:45:49.984Z,47.00
2019-02-26T02:46:48.489Z,47.11
2019-02-26T02:47:48.463Z,47.20
2019-02-26T02:48:48.458Z,46.91
2019-02-26T02:49:48.443Z,47.00
2019-02-26T02:50:48.443Z,46.70
2019-02-26T02:51:49.033Z,47.00
2019-02-26T02:52:50.533Z,47.11
2019-02-26T02:53:50.504Z,46.60
2019-02-26T02:54:49.916Z,46.60
2019-02-26T02:55:49.524Z,46.70
2019-02-26T02:56:48.444Z,46.60
2019-02-26T02:57:50.221Z,47.20
2019-02-26T02:58:49.513Z,47.20
2019-02-26T02:59:48.343Z,46.60
2019-02-26T03:00:51.210Z,46.91
2019-02-26T03:01:51.360Z,47.11
2019-02-26T03:02:50.090Z,46.60
2019-02-26T03:03:50.569Z,46.70
2019-02-26T03:04:48.412Z,46.91
2019-02-26T03:05:48.262Z,46.91
2019-02-26T03:06:55.087Z,47.11
2019-02-26T03:07:51.018Z,46.60
2019-02-26T03:08:51.092Z,47.33
2019-02-26T03:09:48.215Z,47.43
2019-02-26T03:10:48.209Z,47.00
2019-02-26T03:11:49.682Z,47.13
2019-02-26T03:12:52.202Z,47.11
2019-02-26T03:13:51.216Z,47.23
2019-02-26T03:14:48.910Z,46.93
2019-02-26T03:15:50.056Z,47.03
2019-02-26T03:16:50.839Z,47.13
2019-02-26T03:17:48.131Z,47.13
2019-02-26T03:18:48.127Z,47.03
2019-02-26T03:19:48.125Z,47.11
2019-02-26T03:20:48.094Z,46.83
2019-02-26T03:21:49.618Z,47.13
2019-02-26T03:22:49.171Z,46.93
2019-02-26T03:23:48.082Z,46.93
2019-02-26T03:24:48.845Z,46.53
2019-02-26T03:25:50.512Z,46.22
2019-02-26T03:26:48.039Z,46.22
2019-02-26T03:27:48.444Z,46.73
2019-02-26T03:28:50.699Z,45.92
2019-02-26T03:29:49.932Z,46.33
2019-02-26T03:30:48.014Z,47.23
2019-02-26T03:31:54.419Z,47.43
2019-02-26T03:32:52.082Z,46.33
2019-02-26T03:33:48.971Z,46.62
2019-02-26T03:34:47.968Z,45.92
2019-02-26T03:35:48.416Z,46.53
2019-02-26T03:36:47.924Z,46.73
2019-02-26T03:37:48.784Z,46.42
2019-02-26T03:38:49.080Z,46.12
2019-02-26T03:39:47.892Z,46.42
2019-02-26T03:40:49.320Z,46.73
2019-02-26T03:41:48.641Z,47.13
2019-02-26T03:42:47.860Z,47.13
2019-02-26T03:43:47.871Z,47.13
2019-02-26T03:44:47.841Z,47.13
2019-02-26T03:45:48.217Z,47.03
2019-02-26T03:46:47.813Z,47.03
2019-02-26T03:47:47.798Z,47.03
2019-02-26T03:48:47.799Z,47.13
2019-02-26T03:49:47.775Z,47.23
2019-02-26T03:50:47.813Z,47.23
2019-02-26T03:51:47.773Z,47.03
2019-02-26T03:52:47.761Z,46.95
2019-02-26T03:53:47.769Z,47.25
2019-02-26T03:54:48.678Z,46.93
2019-02-26T03:55:47.734Z,47.03
2019-02-26T03:56:47.714Z,46.93
2019-02-26T03:57:50.573Z,46.93
2019-02-26T03:58:52.196Z,46.93
2019-02-26T03:59:48.665Z,46.93
2019-02-26T04:00:47.683Z,46.73
2019-02-26T04:01:47.648Z,46.93
2019-02-26T04:02:49.100Z,46.93
2019-02-26T04:03:47.929Z,46.73
2019-02-26T04:04:51.730Z,46.93
2019-02-26T04:05:48.624Z,47.03
2019-02-26T04:06:47.943Z,46.73
2019-02-26T04:07:51.650Z,46.95
2019-02-26T04:08:48.589Z,46.93
2019-02-26T04:09:52.439Z,47.75
2019-02-26T04:10:49.908Z,47.05
2019-02-26T04:11:50.231Z,47.05
2019-02-26T04:12:48.715Z,47.05
2019-02-26T04:13:49.358Z,46.85
2019-02-26T04:14:47.511Z,46.73
2019-02-26T04:15:47.500Z,47.05
2019-02-26T04:16:47.484Z,46.83
2019-02-26T04:17:47.561Z,46.95
2019-02-26T04:18:51.062Z,46.93
2019-02-26T04:19:47.471Z,46.93
2019-02-26T04:20:47.457Z,46.95
2019-02-26T04:21:47.445Z,46.95
2019-02-26T04:22:49.927Z,47.83
2019-02-26T04:23:48.435Z,46.95
2019-02-26T04:24:47.439Z,47.63
2019-02-26T04:25:49.502Z,47.55
2019-02-26T04:26:47.385Z,47.53
2019-02-26T04:27:47.376Z,47.83
2019-02-26T04:28:47.625Z,47.96
2019-02-26T04:29:49.368Z,47.75
2019-02-26T04:30:49.636Z,47.96
2019-02-26T04:31:50.269Z,47.66
2019-02-26T04:32:48.974Z,47.43
2019-02-26T04:33:47.322Z,47.05
2019-02-26T04:34:48.473Z,46.93
2019-02-26T04:35:47.763Z,47.63
2019-02-26T04:36:47.287Z,47.55
2019-02-26T04:37:47.463Z,47.75
2019-02-26T04:38:48.433Z,47.96
2019-02-26T04:39:47.741Z,47.53
2019-02-26T04:40:47.243Z,47.74
2019-02-26T04:41:47.255Z,47.55
2019-02-26T04:42:47.217Z,47.96
2019-02-26T04:43:47.217Z,47.53
2019-02-26T04:44:50.404Z,47.66
2019-02-26T04:45:48.167Z,47.96
2019-02-26T04:46:47.462Z,47.83
2019-02-26T04:47:49.518Z,47.45
2019-02-26T04:48:47.135Z,47.96
2019-02-26T04:49:47.129Z,47.66
2019-02-26T04:50:47.452Z,47.15
2019-02-26T04:51:48.375Z,47.75
2019-02-26T04:52:47.094Z,47.03
2019-02-26T04:53:49.208Z,47.35
2019-02-26T04:54:47.066Z,47.75
2019-02-26T04:55:47.435Z,47.74
2019-02-26T04:56:48.041Z,47.66
2019-02-26T04:57:49.092Z,47.43
2019-02-26T04:58:47.824Z,47.43
2019-02-26T04:59:47.031Z,47.55
2019-02-26T05:00:47.017Z,47.55
2019-02-26T05:01:49.100Z,47.25
2019-02-26T05:02:47.030Z,47.55
2019-02-26T05:03:46.966Z,47.55
2019-02-26T05:04:46.955Z,47.35
2019-02-26T05:05:51.334Z,47.63
2019-02-26T05:06:48.455Z,47.45
2019-02-26T05:07:49.313Z,47.15
2019-02-26T05:08:46.941Z,47.35
2019-02-26T05:09:47.522Z,47.15
2019-02-26T05:10:48.923Z,47.53
2019-02-26T05:11:46.908Z,47.45
2019-02-26T05:12:46.872Z,47.35
2019-02-26T05:13:46.873Z,47.35
2019-02-26T05:14:46.852Z,47.45
2019-02-26T05:15:46.838Z,47.23
2019-02-26T05:16:46.843Z,47.55
2019-02-26T05:17:46.815Z,47.15
2019-02-26T05:18:49.038Z,47.45
2019-02-26T05:19:48.757Z,47.25
2019-02-26T05:20:48.482Z,47.45
2019-02-26T05:21:46.796Z,47.25
2019-02-26T05:22:46.766Z,47.55
2019-02-26T05:23:49.361Z,47.45
2019-02-26T05:24:48.238Z,47.55
2019-02-26T05:25:46.741Z,47.63
2019-02-26T05:26:46.722Z,47.55
2019-02-26T05:27:48.786Z,47.45
2019-02-26T05:28:48.986Z,47.35
2019-02-26T05:29:48.927Z,47.35
2019-02-26T05:30:49.367Z,47.55
2019-02-26T05:31:46.671Z,47.55
2019-02-26T05:32:46.662Z,47.55
2019-02-26T05:33:47.651Z,47.53
2019-02-26T05:34:50.227Z,47.45
2019-02-26T05:35:48.995Z,47.66
2019-02-26T05:36:46.618Z,47.45
2019-02-26T05:37:46.627Z,47.45
2019-02-26T05:38:46.614Z,47.45
2019-02-26T05:39:49.085Z,47.35
2019-02-26T05:40:48.095Z,47.66
2019-02-26T05:41:46.571Z,47.35
2019-02-26T05:42:46.551Z,47.55
2019-02-26T05:43:49.498Z,47.15
2019-02-26T05:44:46.980Z,47.25
2019-02-26T05:45:48.465Z,47.05
2019-02-26T05:46:47.614Z,47.15
2019-02-26T05:47:48.892Z,47.15
2019-02-26T05:48:48.548Z,47.15
2019-02-26T05:49:46.486Z,47.55
2019-02-26T05:50:46.973Z,47.55
2019-02-26T05:51:46.951Z,47.45
2019-02-26T05:52:49.839Z,47.15
2019-02-26T05:53:46.453Z,47.15
2019-02-26T05:54:46.428Z,47.75
2019-02-26T05:55:48.577Z,47.35
2019-02-26T05:56:49.682Z,47.05
2019-02-26T05:57:46.448Z,47.15
2019-02-26T05:58:46.998Z,47.05
2019-02-26T05:59:46.370Z,47.15
2019-02-26T06:00:46.354Z,47.15
2019-02-26T06:01:48.769Z,47.15
2019-02-26T06:02:48.587Z,47.15
2019-02-26T06:03:48.838Z,47.05
2019-02-26T06:04:46.693Z,47.15
2019-02-26T06:05:49.023Z,47.05
2019-02-26T06:06:50.297Z,46.75
2019-02-26T06:07:46.294Z,47.96
2019-02-26T06:08:46.278Z,47.05
2019-02-26T06:09:48.330Z,45.84
2019-02-26T06:10:46.299Z,45.54
2019-02-26T06:11:49.817Z,44.43
2019-02-26T06:12:46.772Z,43.93
2019-02-26T06:13:46.223Z,43.52
2019-02-26T06:14:46.199Z,44.23
2019-02-26T06:15:46.196Z,43.42
2019-02-26T06:16:48.168Z,43.52
2019-02-26T06:17:48.237Z,43.62
2019-02-26T06:18:48.874Z,43.52
2019-02-26T06:19:46.238Z,43.34
2019-02-26T06:20:48.557Z,43.22
2019-02-26T06:21:49.178Z,41.83
2019-02-26T06:22:46.958Z,41.81
2019-02-26T06:23:46.932Z,41.61
2019-02-26T06:24:46.119Z,41.71
2019-02-26T06:25:46.952Z,42.03
2019-02-26T06:26:46.960Z,41.51
2019-02-26T06:27:46.956Z,41.53
2019-02-26T06:28:48.551Z,41.13
2019-02-26T06:29:46.067Z,41.63
2019-02-26T06:30:46.937Z,41.83
2019-02-26T06:31:47.057Z,41.20
2019-02-26T06:32:46.951Z,41.22
2019-02-26T06:33:47.789Z,41.91
2019-02-26T06:34:45.988Z,41.42
2019-02-26T06:35:46.951Z,41.13
2019-02-26T06:36:48.705Z,41.42
2019-02-26T06:37:46.933Z,41.20
2019-02-26T06:38:49.294Z,41.41
2019-02-26T06:39:50.526Z,41.02
2019-02-26T06:40:49.134Z,41.11
2019-02-26T06:41:47.250Z,41.00
2019-02-26T06:42:46.442Z,41.61
2019-02-26T06:43:48.546Z,41.61
2019-02-26T06:44:48.895Z,41.51
2019-02-26T06:45:47.774Z,41.71
2019-02-26T06:46:45.972Z,41.91
2019-02-26T06:47:48.420Z,42.01
2019-02-26T06:48:46.439Z,41.61
2019-02-26T06:49:48.438Z,41.81
2019-02-26T06:50:45.927Z,42.01
2019-02-26T06:51:47.454Z,41.61
2019-02-26T06:52:47.651Z,42.01
2019-02-26T06:53:49.221Z,41.41
2019-02-26T06:54:50.580Z,41.71
2019-02-26T06:55:46.765Z,41.41
2019-02-26T06:56:48.510Z,42.72
2019-02-26T06:57:47.226Z,42.11
2019-02-26T06:58:52.831Z,42.41
2019-02-26T06:59:48.099Z,42.01
2019-02-26T07:00:47.675Z,42.92
2019-02-26T07:01:46.437Z,42.32
2019-02-26T07:02:46.453Z,41.81
2019-02-26T07:03:45.984Z,43.12
2019-02-26T07:04:51.984Z,43.02
2019-02-26T07:05:47.353Z,43.00
2019-02-26T07:06:48.323Z,43.42
2019-02-26T07:08:06.620Z,43.80
2019-02-26T07:08:48.981Z,44.01
2019-02-26T07:09:47.472Z,44.21
2019-02-26T07:10:48.694Z,43.79
2019-02-26T07:11:47.607Z,44.01
2019-02-26T07:12:48.861Z,43.91
2019-02-26T07:13:46.482Z,43.91
2019-02-26T07:14:48.198Z,44.29
2019-02-26T07:15:46.003Z,44.29
2019-02-26T07:16:45.516Z,43.99
2019-02-26T07:17:46.501Z,43.96
2019-02-26T07:18:46.444Z,43.99
2019-02-26T07:19:46.451Z,43.87
2019-02-26T07:20:49.175Z,44.19
2019-02-26T07:21:47.905Z,43.88
2019-02-26T07:22:48.965Z,43.88
2019-02-26T07:23:45.979Z,43.79
2019-02-26T07:24:48.640Z,44.29
2019-02-26T07:25:45.960Z,44.79
2019-02-26T07:26:46.362Z,43.88
2019-02-26T07:27:53.614Z,43.88
2019-02-26T07:28:50.928Z,43.87
2019-02-26T07:30:07.593Z,43.96
2019-02-26T07:30:57.490Z,43.88
2019-02-26T07:31:54.062Z,43.87
2019-02-26T07:32:49.222Z,44.57
2019-02-26T07:33:45.480Z,44.57
2019-02-26T07:34:49.688Z,45.17
2019-02-26T07:35:49.423Z,44.67
2019-02-26T07:36:46.199Z,44.67
2019-02-26T07:37:45.297Z,44.87
2019-02-26T07:38:47.259Z,44.97
2019-02-26T07:39:47.173Z,45.27
2019-02-26T07:40:45.269Z,44.97
2019-02-26T07:41:47.100Z,45.15
2019-02-26T07:42:49.206Z,45.25
2019-02-26T07:43:46.863Z,44.95
2019-02-26T07:44:54.505Z,45.65
2019-02-26T07:45:51.397Z,44.85
2019-02-26T07:46:47.498Z,44.95
2019-02-26T07:47:45.393Z,45.45
2019-02-26T07:48:48.499Z,45.86
2019-02-26T07:49:45.971Z,45.45
2019-02-26T07:50:49.051Z,45.65
2019-02-26T07:51:48.289Z,45.75
2019-02-26T07:52:50.307Z,45.45
2019-02-26T07:53:50.650Z,45.23
2019-02-26T07:54:51.845Z,45.03
2019-02-26T07:55:47.229Z,45.45
2019-02-26T07:56:45.969Z,45.33
2019-02-26T07:57:48.006Z,45.43
2019-02-26T07:58:47.986Z,45.63
2019-02-26T07:59:47.587Z,45.53
2019-02-26T08:00:49.545Z,45.63
2019-02-26T08:01:50.431Z,45.63
2019-02-26T08:02:45.436Z,45.43
2019-02-26T08:03:48.859Z,45.43
2019-02-26T08:04:47.968Z,45.13
2019-02-26T08:05:49.669Z,44.73
2019-02-26T08:06:56.671Z,44.73
2019-02-26T08:07:51.924Z,43.92
2019-02-26T08:08:51.933Z,44.23
2019-02-26T08:09:46.489Z,43.82
2019-02-26T08:10:48.329Z,43.72
2019-02-26T08:11:49.017Z,43.90
2019-02-26T08:12:45.458Z,44.20
2019-02-26T08:13:45.462Z,43.40
2019-02-26T08:14:47.678Z,43.50
2019-02-26T08:15:45.520Z,43.40
2019-02-26T08:16:49.265Z,43.60
2019-02-26T08:17:50.334Z,43.60
2019-02-26T08:19:05.989Z,43.30
2019-02-26T08:19:47.261Z,42.80
2019-02-26T08:20:45.477Z,43.20
2019-02-26T08:21:47.672Z,42.80
2019-02-26T08:22:45.526Z,42.88
2019-02-26T08:23:46.152Z,42.90
2019-02-26T08:24:48.658Z,42.69
2019-02-26T08:25:47.350Z,42.68
2019-02-26T08:26:47.422Z,42.60
2019-02-26T08:27:45.579Z,42.18
2019-02-26T08:28:45.884Z,42.47
2019-02-26T08:29:44.783Z,42.68
2019-02-26T08:30:47.475Z,42.07
2019-02-26T08:31:47.465Z,41.87
2019-02-26T08:32:48.237Z,41.77
2019-02-26T08:33:48.642Z,41.87
2019-02-26T08:34:46.461Z,41.67
2019-02-26T08:35:45.500Z,41.77
2019-02-26T08:36:46.758Z,41.67
2019-02-26T08:37:45.875Z,41.37
2019-02-26T08:38:45.471Z,41.27
2019-02-26T08:39:45.656Z,40.67
2019-02-26T08:41:06.004Z,39.97
2019-02-26T08:41:45.458Z,40.57
2019-02-26T08:42:45.475Z,39.97
2019-02-26T08:43:47.062Z,39.66
2019-02-26T08:44:46.851Z,40.17
2019-02-26T08:45:48.017Z,40.06
2019-02-26T08:46:46.722Z,39.06
2019-02-26T08:47:45.473Z,39.06
2019-02-26T08:48:46.605Z,39.36
2019-02-26T08:49:47.487Z,39.36
2019-02-26T08:50:46.263Z,39.36
2019-02-26T08:51:45.518Z,39.06
2019-02-26T08:52:49.416Z,39.66
2019-02-26T08:53:47.033Z,39.66
2019-02-26T08:54:44.968Z,39.86
2019-02-26T08:55:44.459Z,39.26
2019-02-26T08:56:44.997Z,40.06
2019-02-26T08:57:44.980Z,39.16
2019-02-26T08:58:45.451Z,38.56
2019-02-26T09:00:05.199Z,39.16
2019-02-26T09:02:19.238Z,38.56
2019-02-26T09:03:20.389Z,38.36
2019-02-26T09:04:21.046Z,37.85
2019-02-26T09:05:20.736Z,38.86
2019-02-26T09:06:18.406Z,38.56
2019-02-26T09:07:19.561Z,38.56
2019-02-26T09:08:18.135Z,38.26
2019-02-26T09:09:21.004Z,39.26
2019-02-26T09:10:20.583Z,38.36
2019-02-26T09:11:18.575Z,38.56
2019-02-26T09:12:19.929Z,39.06
2019-02-26T09:13:18.935Z,39.56
2019-02-26T09:14:32.184Z,39.36
2019-02-26T09:15:29.278Z,39.26
2019-02-26T09:16:22.267Z,38.76
2019-02-26T09:17:23.175Z,38.86
2019-02-26T09:18:24.617Z,39.56
2019-02-26T09:19:22.687Z,39.06
2019-02-26T09:20:28.009Z,39.86
2019-02-26T09:21:23.231Z,40.05
2019-02-26T09:22:20.731Z,40.26
2019-02-26T09:23:20.736Z,39.97
2019-02-26T09:24:17.946Z,40.17
2019-02-26T09:25:20.523Z,39.86
2019-02-26T09:26:23.920Z,39.95
2019-02-26T09:27:24.806Z,39.84
2019-02-26T09:28:20.530Z,40.45
2019-02-26T09:29:22.033Z,40.67
2019-02-26T09:30:28.062Z,41.15
2019-02-26T09:31:22.782Z,41.15
2019-02-26T09:32:18.270Z,41.05
2019-02-26T09:33:18.291Z,40.95
2019-02-26T09:34:17.954Z,41.15
2019-02-26T09:35:21.818Z,40.87
2019-02-26T09:36:21.020Z,41.75
2019-02-26T09:37:18.027Z,41.65
2019-02-26T09:38:20.071Z,41.65
2019-02-26T09:39:18.137Z,41.55
2019-02-26T09:40:26.300Z,41.55
2019-02-26T09:41:19.390Z,41.55
2019-02-26T09:42:17.955Z,41.65
2019-02-26T09:43:20.211Z,41.35
2019-02-26T09:44:18.930Z,41.15
2019-02-26T09:45:20.392Z,41.25
2019-02-26T09:46:19.133Z,40.45
2019-02-26T09:47:16.932Z,39.95
2019-02-26T09:48:17.515Z,39.45
2019-02-26T09:49:17.446Z,39.14
2019-02-26T09:50:20.745Z,39.04
2019-02-26T09:51:17.434Z,39.14
2019-02-26T09:52:18.948Z,38.94
2019-02-26T09:53:16.870Z,38.94
2019-02-26T09:54:18.222Z,38.94
2019-02-26T09:55:17.440Z,39.04
2019-02-26T09:56:16.978Z,39.04
2019-02-26T09:57:18.014Z,38.94
2019-02-26T09:58:20.048Z,39.25
2019-02-26T09:59:17.442Z,39.14
2019-02-26T10:00:20.327Z,39.45
2019-02-26T10:01:19.891Z,39.04
2019-02-26T10:02:17.281Z,39.14
2019-02-26T10:03:16.966Z,39.03
2019-02-26T10:04:21.963Z,39.14
2019-02-26T10:05:18.292Z,38.94
2019-02-26T10:06:19.273Z,39.23
2019-02-26T10:07:17.462Z,39.25
2019-02-26T10:08:17.288Z,39.73
2019-02-26T10:09:18.868Z,39.42
2019-02-26T10:10:16.996Z,39.64
2019-02-26T10:11:18.493Z,40.13
2019-02-26T10:12:17.437Z,39.32
2019-02-26T10:13:18.277Z,39.03
2019-02-26T10:14:17.442Z,38.53
2019-02-26T10:15:17.480Z,38.02
2019-02-26T10:16:17.438Z,38.42
2019-02-26T10:17:19.577Z,37.42
2019-02-26T10:18:17.448Z,37.52
2019-02-26T10:19:19.387Z,37.32
2019-02-26T10:20:18.236Z,37.22
2019-02-26T10:21:18.481Z,37.72
2019-02-26T10:22:17.440Z,37.82
2019-02-26T10:23:19.202Z,38.22
2019-02-26T10:24:23.030Z,38.02
2019-02-26T10:25:17.977Z,37.42
2019-02-26T10:26:18.416Z,36.61
2019-02-26T10:27:17.450Z,36.82
2019-02-26T10:28:20.990Z,37.52
2019-02-26T10:29:19.938Z,36.61
2019-02-26T10:30:19.908Z,36.82
2019-02-26T10:31:24.159Z,36.61
2019-02-26T10:32:17.950Z,37.12
2019-02-26T10:33:18.510Z,37.22
2019-02-26T10:34:18.342Z,36.72
2019-02-26T10:35:19.469Z,36.41
2019-02-26T10:36:18.944Z,35.82
2019-02-26T10:37:16.980Z,36.23
2019-02-26T10:38:17.012Z,36.63
2019-02-26T10:39:18.619Z,36.52
2019-02-26T10:40:17.133Z,37.34
2019-02-26T10:41:16.944Z,37.04
2019-02-26T10:42:18.082Z,37.34
2019-02-26T10:43:16.430Z,36.54
2019-02-26T10:44:22.496Z,36.54
2019-02-26T10:45:17.943Z,36.73
2019-02-26T10:46:16.944Z,37.04
2019-02-26T10:47:35.548Z,37.44
2019-02-26T10:48:24.440Z,37.42
2019-02-26T10:49:19.927Z,38.14
2019-02-26T10:50:22.845Z,38.32
2019-02-26T10:51:25.831Z,38.22
2019-02-26T10:52:21.629Z,38.02
2019-02-26T10:53:20.374Z,38.22
2019-02-26T10:54:18.237Z,38.42
2019-02-26T10:55:17.721Z,38.82
2019-02-26T10:56:17.039Z,38.42
2019-02-26T10:57:19.630Z,38.22
2019-02-26T10:58:17.842Z,38.42
2019-02-26T10:59:19.513Z,39.23
2019-02-26T11:00:19.861Z,39.42
2019-02-26T11:01:25.397Z,39.03
2019-02-26T11:02:23.100Z,39.23
2019-02-26T11:03:20.184Z,38.92
2019-02-26T11:04:19.230Z,39.03
2019-02-26T11:05:26.160Z,39.23
2019-02-26T11:06:20.149Z,38.92
2019-02-26T11:07:20.926Z,39.03
2019-02-26T11:08:20.868Z,39.03
2019-02-26T11:09:21.187Z,39.03
2019-02-26T11:10:25.945Z,40.03
2019-02-26T11:11:19.115Z,39.42
2019-02-26T11:12:20.089Z,40.03
2019-02-26T11:13:21.083Z,40.23
2019-02-26T11:14:19.213Z,39.93
2019-02-26T11:15:16.963Z,40.43
2019-02-26T11:16:22.649Z,39.93
2019-02-26T11:17:17.984Z,39.83
2019-02-26T11:18:18.149Z,40.03
2019-02-26T11:19:16.454Z,40.03
2019-02-26T11:21:24.737Z,40.23
2019-02-26T11:22:27.412Z,40.43
2019-02-26T11:23:30.865Z,40.13
2019-02-26T11:24:28.184Z,39.83
2019-02-26T11:25:27.433Z,40.33
2019-02-26T11:26:25.631Z,39.93
2019-02-26T11:27:24.769Z,40.03
2019-02-26T11:28:29.720Z,39.83
2019-02-26T11:29:26.137Z,40.43
2019-02-26T11:30:27.248Z,39.62
2019-02-26T11:31:25.650Z,39.53
2019-02-26T11:32:24.671Z,39.23
2019-02-26T11:33:25.432Z,38.42
2019-02-26T11:34:28.569Z,38.92
2019-02-26T11:35:27.474Z,39.53
2019-02-26T11:36:25.381Z,40.43
2019-02-26T11:37:27.112Z,40.73
2019-02-26T11:38:31.374Z,41.13
2019-02-26T11:39:25.419Z,41.23
2019-02-26T11:40:27.565Z,41.03
2019-02-26T11:41:29.273Z,41.33
2019-02-26T11:42:26.198Z,41.63
2019-02-26T11:43:27.002Z,41.43
2019-02-26T11:44:27.622Z,41.43
2019-02-26T11:45:25.396Z,40.93
2019-02-26T11:46:27.301Z,40.33
2019-02-26T11:47:27.027Z,39.83
2019-02-26T11:48:28.943Z,39.83
2019-02-26T11:49:25.390Z,40.03
2019-02-26T11:50:28.192Z,40.33
2019-02-26T11:51:25.910Z,41.13
2019-02-26T11:52:24.414Z,40.53
2019-02-26T11:53:24.407Z,41.23
2019-02-26T11:54:24.884Z,41.43
2019-02-26T11:55:26.925Z,40.63
2019-02-26T11:56:27.447Z,40.43
2019-02-26T11:57:24.887Z,40.13
2019-02-26T11:58:26.238Z,40.23
2019-02-26T11:59:24.886Z,39.53
2019-02-26T12:00:25.871Z,39.53
2019-02-26T12:01:26.971Z,40.03
2019-02-26T12:02:30.648Z,40.23
2019-02-26T12:03:27.471Z,39.93
2019-02-26T12:04:25.023Z,40.03
2019-02-26T12:05:32.844Z,39.23
2019-02-26T12:06:25.930Z,38.62
2019-02-26T12:07:25.635Z,38.82
2019-02-26T12:08:25.727Z,38.42
2019-02-26T12:09:24.889Z,39.12
2019-02-26T12:10:27.097Z,38.53
2019-02-26T12:11:24.931Z,38.02
2019-02-26T12:12:28.400Z,37.02
2019-02-26T12:13:27.178Z,36.82
2019-02-26T12:14:26.467Z,37.02
2019-02-26T12:15:42.362Z,36.32
2019-02-26T12:16:28.404Z,36.61
2019-02-26T12:17:33.539Z,35.71
2019-02-26T12:18:24.892Z,36.02
2019-02-26T12:19:28.313Z,36.21
2019-02-26T12:20:24.907Z,35.61
2019-02-26T12:21:28.074Z,35.71
2019-02-26T12:22:27.314Z,35.51
2019-02-26T12:23:24.983Z,34.91
2019-02-26T12:24:26.687Z,34.71
2019-02-26T12:25:26.903Z,34.61
2019-02-26T12:26:25.565Z,34.31
2019-02-26T12:27:24.925Z,34.01
2019-02-26T12:28:27.821Z,34.01
2019-02-26T12:29:25.926Z,34.21
2019-02-26T12:30:25.084Z,34.61
2019-02-26T12:31:27.550Z,34.11
2019-02-26T12:32:26.984Z,34.71
2019-02-26T12:33:24.887Z,34.81
2019-02-26T12:34:23.960Z,34.61
2019-02-26T12:35:24.962Z,34.21
2019-02-26T12:36:26.593Z,34.21
2019-02-26T12:37:24.911Z,34.61
2019-02-26T12:38:24.941Z,34.11
2019-02-26T12:39:25.054Z,34.31
2019-02-26T12:40:26.413Z,34.01
2019-02-26T12:41:24.417Z,34.21
2019-02-26T12:42:24.403Z,34.02
2019-02-26T12:43:30.195Z,34.02
2019-02-26T12:44:24.426Z,34.01
2019-02-26T12:45:28.604Z,34.02
2019-02-26T12:46:27.327Z,34.33
2019-02-26T12:47:24.751Z,34.51
2019-02-26T12:48:24.425Z,34.83
2019-02-26T12:49:24.410Z,35.61
2019-02-26T12:50:47.957Z,35.91
2019-02-26T12:51:26.290Z,35.91
2019-02-26T12:52:31.877Z,36.11
2019-02-26T12:53:25.400Z,36.21
2019-02-26T12:54:39.408Z,36.21
2019-02-26T12:55:29.681Z,36.02